createdAt,value
2019-04-04T00:00:01.300Z,5.13
2019-04-04T00:03:31.619Z,5.11
2019-04-04T00:07:01.888Z,5.11
2019-04-04T00:10:32.830Z,5.11
2019-04-04T00:14:04.950Z,5.11
2019-04-04T00:17:35.178Z,5.09
2019-04-04T00:21:05.408Z,5.08
2019-04-04T00:24:35.554Z,5.09
2019-04-04T00:28:05.763Z,5.07
2019-04-04T00:31:35.956Z,5.1
2019-04-04T00:35:06.352Z,5.12
2019-04-04T00:38:37.996Z,5.12
2019-04-04T00:42:08.825Z,5.11
2019-04-04T00:45:39.071Z,5.09
2019-04-04T00:49:09.237Z,5.09
2019-04-04T00:52:41.329Z,5.09
2019-04-04T00:56:11.536Z,5.06
2019-04-04T00:59:41.726Z,5.09
2019-04-04T01:00:16.367Z,5.09
2019-04-04T01:03:46.585Z,5.06
2019-04-04T01:07:16.688Z,5.04
2019-04-04T01:10:49.540Z,5.03
2019-04-04T01:14:20.204Z,5.03
2019-04-04T01:17:50.303Z,4.99
2019-04-04T01:21:22.169Z,4.93
2019-04-04T01:24:53.106Z,4.9
2019-04-04T01:28:23.226Z,4.87
2019-04-04T01:31:53.379Z,4.85
2019-04-04T01:35:23.540Z,4.81
2019-04-04T01:38:53.658Z,4.73
2019-04-04T01:42:23.738Z,4.67
2019-04-04T01:45:53.801Z,4.59
2019-04-04T01:49:23.894Z,4.55
2019-04-04T01:52:53.917Z,4.5
2019-04-04T01:56:23.982Z,4.48
2019-04-04T01:59:54.166Z,4.46
2019-04-04T02:03:24.385Z,4.38
2019-04-04T02:06:54.471Z,4.32
2019-04-04T02:10:24.508Z,4.31
2019-04-04T02:13:54.628Z,4.31
2019-04-04T02:17:24.716Z,4.33
2019-04-04T02:20:57.600Z,4.27
2019-04-04T02:24:28.089Z,4.14
2019-04-04T02:27:58.149Z,4.01
2019-04-04T02:31:30.623Z,3.98
2019-04-04T02:35:00.771Z,3.95
2019-04-04T02:38:30.848Z,4
2019-04-04T02:42:00.963Z,4.03
2019-04-04T02:45:31.095Z,3.97
2019-04-04T02:49:01.143Z,3.93
2019-04-04T02:52:31.141Z,3.96
2019-04-04T02:56:03.338Z,3.93
2019-04-04T02:59:33.776Z,3.96
2019-04-04T03:00:15.588Z,3.94
2019-04-04T03:03:45.917Z,3.93
2019-04-04T03:07:16.146Z,3.92
2019-04-04T03:10:49.018Z,3.96
2019-04-04T03:14:19.445Z,3.93
2019-04-04T03:17:49.428Z,3.94
2019-04-04T03:21:22.216Z,3.98
2019-04-04T03:24:53.396Z,3.94
2019-04-04T03:28:23.503Z,3.95
2019-04-04T03:31:53.611Z,3.93
2019-04-04T03:35:27.690Z,3.91
2019-04-04T03:38:59.018Z,3.91
2019-04-04T03:42:29.040Z,3.93
2019-04-04T03:46:01.329Z,3.95
2019-04-04T03:49:31.756Z,3.98
2019-04-04T03:53:01.981Z,4.03
2019-04-04T03:56:38.670Z,4.1
2019-04-04T04:00:24.365Z,4.13
2019-04-04T04:03:55.522Z,4.11
2019-04-04T04:07:25.773Z,4.03
2019-04-04T04:10:55.910Z,4.07
2019-04-04T04:14:25.977Z,4.11
2019-04-04T04:17:55.913Z,4.15
2019-04-04T04:21:25.951Z,4.26
2019-04-04T04:24:56.214Z,4.25
2019-04-04T04:28:26.195Z,4.36
2019-04-04T04:31:56.374Z,4.5
2019-04-04T04:35:26.514Z,4.55
2019-04-04T04:39:00.073Z,4.63
2019-04-04T04:42:30.377Z,4.76
2019-04-04T04:46:00.497Z,4.88
2019-04-04T04:49:30.522Z,5.01
2019-04-04T04:53:00.581Z,5.17
2019-04-04T04:56:31.389Z,5.35
2019-04-04T05:00:16.037Z,5.53
2019-04-04T05:03:47.018Z,5.72
2019-04-04T05:07:17.239Z,5.9
2019-04-04T05:10:47.279Z,6.08
2019-04-04T05:14:17.362Z,6.26
2019-04-04T05:17:47.442Z,6.4
2019-04-04T05:21:24.870Z,6.54
2019-04-04T05:25:08.064Z,6.69
2019-04-04T05:28:41.832Z,6.81
2019-04-04T05:32:12.193Z,6.9
2019-04-04T05:35:42.236Z,6.98
2019-04-04T05:39:12.346Z,7.08
2019-04-04T05:42:42.478Z,7.09
2019-04-04T05:46:12.599Z,7.14
2019-04-04T05:49:42.763Z,7.17
2019-04-04T05:53:12.786Z,7.2
2019-04-04T05:56:44.534Z,7.29
2019-04-04T06:00:16.022Z,7.34
2019-04-04T06:03:47.809Z,7.52
2019-04-04T06:07:18.163Z,7.57
2019-04-04T06:10:50.117Z,7.66
2019-04-04T06:14:20.782Z,7.69
2019-04-04T06:17:50.913Z,7.78
2019-04-04T06:21:20.968Z,7.86
2019-04-04T06:24:52.099Z,7.91
2019-04-04T06:28:22.439Z,7.95
2019-04-04T06:31:52.599Z,8.07
2019-04-04T06:35:22.819Z,8.21
2019-04-04T06:38:53.896Z,8.26
2019-04-04T06:42:24.641Z,8.39
2019-04-04T06:45:54.817Z,8.43
2019-04-04T06:49:24.891Z,8.57
2019-04-04T06:52:56.551Z,8.56
2019-04-04T06:56:26.874Z,8.73
2019-04-04T06:59:56.901Z,8.85
2019-04-04T07:00:15.918Z,8.86
2019-04-04T07:03:46.710Z,8.88
2019-04-04T07:07:16.802Z,8.89
2019-04-04T07:10:57.337Z,8.86
2019-04-04T07:14:29.888Z,8.85
2019-04-04T07:18:02.000Z,8.92
2019-04-04T07:21:31.986Z,9.08
2019-04-04T07:25:05.764Z,9.18
2019-04-04T07:28:36.670Z,9.14
2019-04-04T07:32:07.211Z,9.25
2019-04-04T07:35:39.473Z,9.17
2019-04-04T07:39:12.246Z,9.25
2019-04-04T07:42:42.595Z,9.31
2019-04-04T07:46:16.710Z,9.56
2019-04-04T07:49:47.225Z,9.6
2019-04-04T07:53:17.235Z,9.77
2019-04-04T07:56:48.875Z,9.79
2019-04-04T08:00:19.248Z,9.86
2019-04-04T08:03:49.380Z,9.77
2019-04-04T08:07:19.477Z,9.89
2019-04-04T08:10:49.547Z,9.94
2019-04-04T08:14:19.731Z,10
2019-04-04T08:17:49.884Z,10.03
2019-04-04T08:21:20.002Z,10.16
2019-04-04T08:24:50.093Z,10.28
2019-04-04T08:28:20.276Z,10.42
2019-04-04T08:31:50.430Z,10.52
2019-04-04T08:35:20.516Z,10.47
2019-04-04T08:38:50.639Z,10.4
2019-04-04T08:42:20.709Z,10.5
2019-04-04T08:45:50.839Z,10.82
2019-04-04T08:49:20.992Z,10.88
2019-04-04T08:52:51.221Z,10.92
2019-04-04T08:56:21.322Z,10.8
2019-04-04T08:59:51.409Z,10.86
2019-04-04T09:00:15.664Z,10.89
2019-04-04T09:03:45.837Z,10.98
2019-04-04T09:07:15.958Z,10.87
2019-04-04T09:10:46.171Z,10.84
2019-04-04T09:14:16.235Z,10.87
2019-04-04T09:17:46.394Z,11.18
2019-04-04T09:21:16.653Z,11.27
2019-04-04T09:24:46.907Z,11.51
2019-04-04T09:28:17.071Z,11.55
2019-04-04T09:31:47.213Z,11.54
2019-04-04T09:35:17.350Z,11.52
2019-04-04T09:38:47.457Z,11.54
2019-04-04T09:42:17.598Z,11.5
2019-04-04T09:45:47.800Z,11.61
2019-04-04T09:49:18.001Z,11.67
2019-04-04T09:52:48.134Z,11.95
2019-04-04T09:56:18.269Z,11.92
2019-04-04T09:59:48.425Z,11.96
2019-04-04T10:03:18.592Z,12.1
2019-04-04T10:06:48.816Z,12.41
2019-04-04T10:10:19.397Z,12.7
2019-04-04T10:13:49.551Z,12.78
2019-04-04T10:17:19.740Z,12.82
2019-04-04T10:20:49.964Z,13.06
2019-04-04T10:24:20.110Z,13.22
2019-04-04T10:27:50.184Z,13.47
2019-04-04T10:31:20.336Z,13.3
2019-04-04T10:34:50.483Z,13.74
2019-04-04T10:38:20.587Z,14.27
2019-04-04T10:41:50.842Z,14.49
2019-04-04T10:45:20.938Z,14.26
2019-04-04T10:48:51.241Z,14.47
2019-04-04T10:52:21.357Z,14.64
2019-04-04T10:55:51.548Z,14.97
2019-04-04T10:59:21.690Z,15
2019-04-04T11:00:15.686Z,15.15
2019-04-04T11:03:45.841Z,15.32
2019-04-04T11:07:15.941Z,15.31
2019-04-04T11:10:46.081Z,15.52
2019-04-04T11:14:16.224Z,15.83
2019-04-04T11:17:46.357Z,15.78
2019-04-04T11:21:16.517Z,15.92
2019-04-04T11:24:46.714Z,15.61
2019-04-04T11:28:16.770Z,15.59
2019-04-04T11:31:46.867Z,15.34
2019-04-04T11:35:16.947Z,15.3
2019-04-04T11:38:46.931Z,15.51
2019-04-04T11:42:17.014Z,15.14
2019-04-04T11:45:47.102Z,14.95
2019-04-04T11:49:17.173Z,14.98
2019-04-04T11:52:47.274Z,15.27
2019-04-04T11:56:17.305Z,15.46
2019-04-04T11:59:47.385Z,15.71
2019-04-04T12:03:17.418Z,15.97
2019-04-04T12:06:47.548Z,16.41
2019-04-04T12:10:17.662Z,16.48
2019-04-04T12:13:50.444Z,16.45
2019-04-04T12:17:20.888Z,16.37
2019-04-04T12:20:50.956Z,16.55
2019-04-04T12:24:21.087Z,16.8
2019-04-04T12:27:51.297Z,16.49
2019-04-04T12:31:21.525Z,15.69
2019-04-04T12:34:51.849Z,16.32
2019-04-04T12:38:22.036Z,16.2
2019-04-04T12:41:52.177Z,16.79
2019-04-04T12:45:22.740Z,16.35
2019-04-04T12:48:52.914Z,16.37
2019-04-04T12:52:23.033Z,15.91
2019-04-04T12:55:54.302Z,15.98
2019-04-04T12:59:24.597Z,15.85
2019-04-04T13:00:15.981Z,15.83
2019-04-04T13:03:46.222Z,15.57
2019-04-04T13:07:16.290Z,15.63
2019-04-04T13:10:46.569Z,15.99
2019-04-04T13:14:16.691Z,16.11
2019-04-04T13:17:46.712Z,16.31
2019-04-04T13:21:16.717Z,16.42
2019-04-04T13:24:46.887Z,16.48
2019-04-04T13:28:17.010Z,16.24
2019-04-04T13:31:47.102Z,16.06
2019-04-04T13:35:17.170Z,16.09
2019-04-04T13:38:47.248Z,15.84
2019-04-04T13:42:17.271Z,15.93
2019-04-04T13:45:47.495Z,15.66
2019-04-04T13:49:17.639Z,15.56
2019-04-04T13:52:47.897Z,15.61
2019-04-04T13:56:17.942Z,16.28
2019-04-04T13:59:48.185Z,15.77
2019-04-04T14:03:18.872Z,16.42
2019-04-04T14:06:49.213Z,16.1
2019-04-04T14:10:19.353Z,15.63
2019-04-04T14:13:49.642Z,15.67
2019-04-04T14:17:19.864Z,15.1
2019-04-04T14:21:02.956Z,15.01
2019-04-04T14:24:34.343Z,14.89
2019-04-04T14:28:04.564Z,15.31
2019-04-04T14:31:34.664Z,15.51
2019-04-04T14:35:05.175Z,15.45
2019-04-04T14:38:35.357Z,14.95
2019-04-04T14:42:05.637Z,15.31
2019-04-04T14:45:35.891Z,15.69
2019-04-04T14:49:06.077Z,15.82
2019-04-04T14:52:39.170Z,15.79
2019-04-04T14:56:09.823Z,14.99
2019-04-04T14:59:39.974Z,14.33
2019-04-04T15:00:17.389Z,14.34
2019-04-04T15:03:47.685Z,14.56
2019-04-04T15:07:17.819Z,14.68
2019-04-04T15:10:47.832Z,15.1
2019-04-04T15:14:17.924Z,15.44
2019-04-04T15:17:48.200Z,15.85
2019-04-04T15:21:18.237Z,15.71
2019-04-04T15:24:48.360Z,15.72
2019-04-04T15:28:18.553Z,15.19
2019-04-04T15:31:48.565Z,14.49
2019-04-04T15:35:18.672Z,13.79
2019-04-04T15:38:48.826Z,13.1
2019-04-04T15:42:18.816Z,12.5
2019-04-04T15:45:48.987Z,12.42
2019-04-04T15:49:19.176Z,12.23
2019-04-04T15:52:49.155Z,11.96
2019-04-04T15:56:19.353Z,11.62
2019-04-04T15:59:49.502Z,11.01
2019-04-04T16:03:19.642Z,10.87
2019-04-04T16:06:49.703Z,10.62
2019-04-04T16:10:19.934Z,10.54
2019-04-04T16:13:49.952Z,10.36
2019-04-04T16:17:20.236Z,10.42
2019-04-04T16:20:50.263Z,10.6
2019-04-04T16:24:20.583Z,10.72
2019-04-04T16:27:50.684Z,10.56
2019-04-04T16:31:20.894Z,10.39
2019-04-04T16:34:52.579Z,10.02
2019-04-04T16:38:23.113Z,9.8
2019-04-04T16:42:02.017Z,9.7
2019-04-04T16:45:32.833Z,9.61
2019-04-04T16:49:03.034Z,9.53
2019-04-04T16:52:33.147Z,9.4
2019-04-04T16:56:03.695Z,9.37
2019-04-04T16:59:34.016Z,9.33
2019-04-04T17:00:17.092Z,9.31
2019-04-04T17:03:47.217Z,9.24
2019-04-04T17:07:17.363Z,9.2
2019-04-04T17:10:47.378Z,9.15
2019-04-04T17:14:17.488Z,9.1
2019-04-04T17:17:47.508Z,9.1
2019-04-04T17:21:17.614Z,9.07
2019-04-04T17:24:47.753Z,9
2019-04-04T17:28:18.055Z,8.95
2019-04-04T17:31:48.159Z,8.86
2019-04-04T17:35:18.884Z,8.76
2019-04-04T17:38:49.256Z,8.74
2019-04-04T17:42:29.605Z,8.7
2019-04-04T17:46:02.137Z,8.66
2019-04-04T17:49:32.720Z,8.63
2019-04-04T17:53:03.037Z,8.61
2019-04-04T17:56:33.157Z,8.56
2019-04-04T18:00:04.741Z,8.5
2019-04-04T18:03:34.875Z,8.42
2019-04-04T18:07:04.995Z,8.43
2019-04-04T18:10:35.072Z,8.35
2019-04-04T18:14:05.150Z,8.3
2019-04-04T18:17:35.402Z,8.26
2019-04-04T18:21:05.627Z,8.28
2019-04-04T18:24:35.664Z,8.27
2019-04-04T18:28:05.918Z,8.26
2019-04-04T18:31:35.934Z,8.23
2019-04-04T18:35:06.519Z,8.23
2019-04-04T18:38:36.597Z,8.22
2019-04-04T18:42:06.756Z,8.18
2019-04-04T18:45:36.830Z,8.11
2019-04-04T18:49:07.008Z,8.04
2019-04-04T18:52:37.155Z,8.03
2019-04-04T18:56:07.169Z,7.95
2019-04-04T18:59:37.286Z,7.97
2019-04-04T19:00:16.839Z,7.96
2019-04-04T19:03:47.018Z,8.03
2019-04-04T19:07:17.167Z,8.05
2019-04-04T19:10:47.250Z,8.04
2019-04-04T19:14:17.346Z,8.03
2019-04-04T19:17:47.429Z,7.97
2019-04-04T19:21:17.479Z,7.95
2019-04-04T19:24:47.644Z,7.95
2019-04-04T19:28:17.797Z,7.94
2019-04-04T19:31:47.811Z,7.91
2019-04-04T19:35:18.261Z,7.92
2019-04-04T19:38:48.337Z,7.89
2019-04-04T19:42:18.325Z,7.87
2019-04-04T19:45:48.503Z,7.9
2019-04-04T19:49:18.657Z,7.91
2019-04-04T19:52:48.853Z,7.86
2019-04-04T19:56:18.799Z,7.86
2019-04-04T19:59:48.954Z,7.9
2019-04-04T20:03:19.110Z,7.89
2019-04-04T20:06:49.308Z,7.91
2019-04-04T20:10:19.522Z,7.89
2019-04-04T20:13:49.726Z,7.9
2019-04-04T20:17:19.847Z,7.98
2019-04-04T20:20:49.999Z,7.97
2019-04-04T20:24:20.143Z,7.99
2019-04-04T20:27:55.032Z,8
2019-04-04T20:31:25.421Z,7.96
2019-04-04T20:34:55.670Z,7.97
2019-04-04T20:38:25.758Z,7.95
2019-04-04T20:41:55.866Z,8
2019-04-04T20:45:25.994Z,8.02
2019-04-04T20:48:56.051Z,8
2019-04-04T20:52:26.023Z,8.05
2019-04-04T20:55:56.115Z,8.03
2019-04-04T20:59:28.021Z,8.03
2019-04-04T21:00:56.403Z,8.06
2019-04-04T21:04:26.588Z,8.04
2019-04-04T21:07:56.633Z,7.98
2019-04-04T21:11:26.718Z,8
2019-04-04T21:14:56.765Z,8.01
2019-04-04T21:18:26.783Z,8.05
2019-04-04T21:21:56.884Z,7.99
2019-04-04T21:25:27.039Z,7.98
2019-04-04T21:28:57.096Z,7.96
2019-04-04T21:32:27.149Z,7.88
2019-04-04T21:35:57.340Z,7.86
2019-04-04T21:39:29.783Z,7.79
2019-04-04T21:43:00.186Z,7.77
2019-04-04T21:46:30.332Z,7.72
2019-04-04T21:50:00.517Z,7.62
2019-04-04T21:53:30.575Z,7.59
2019-04-04T21:57:00.703Z,7.64
2019-04-04T22:00:42.605Z,7.67
2019-04-04T22:04:12.681Z,7.75
2019-04-04T22:07:42.821Z,7.84
2019-04-04T22:11:12.995Z,7.91
2019-04-04T22:14:43.067Z,8.11
2019-04-04T22:18:13.156Z,8.24
2019-04-04T22:21:43.287Z,8.36
2019-04-04T22:25:13.347Z,8.31
2019-04-04T22:28:43.459Z,8.19
2019-04-04T22:32:13.452Z,8.1
2019-04-04T22:35:43.545Z,8.03
2019-04-04T22:39:13.567Z,7.87
2019-04-04T22:42:43.606Z,7.88
2019-04-04T22:46:13.680Z,7.8
2019-04-04T22:49:43.690Z,7.77
2019-04-04T22:53:13.680Z,7.84
2019-04-04T22:56:43.892Z,7.9
2019-04-04T23:00:16.621Z,7.9
2019-04-04T23:03:46.733Z,7.95
2019-04-04T23:07:16.727Z,8.01
2019-04-04T23:10:46.818Z,8.12
2019-04-04T23:14:16.870Z,8.2
2019-04-04T23:17:47.099Z,8.24
2019-04-04T23:21:17.222Z,8.27
2019-04-04T23:24:47.336Z,8.25
2019-04-04T23:28:17.462Z,8.2
2019-04-04T23:31:47.586Z,8.19
2019-04-04T23:35:17.746Z,8.09
2019-04-04T23:38:47.986Z,8.04
2019-04-04T23:42:18.130Z,8.06
2019-04-04T23:45:48.230Z,8.09
2019-04-04T23:49:18.289Z,8.15
2019-04-04T23:52:48.476Z,8.17
2019-04-04T23:56:18.540Z,8.2
2019-04-04T23:59:48.630Z,8.3
